Ana Sayfa
METAR-TAF:

METAR-TAF

Havaalanları :

Wallis, Fransa

Enlem: 13-14S, Boylam: 176-10W, yükseklik: 23 m

METAR: eksik

Saat: 11:29 (23:29 UTC)

Tahmin

Rapor saat 17:00 UTC de 6 saat ve 29 dakika önce yapıldı.
Ayın 15'si saat 18 UTC'den ayın 16'si saat 18 UTC'ye kadar geçerli Tahmin
Rüzgar doğudan 8 kt
Görüş mesafesi 10 km veya daha fazla
2500 ft yükseklikte parçalı bulutlu
4000 ft yükseklikte parçalı çok bulutlu
Olasılık 40% :
Geçici
ayın 15'si saat 18 UTC'den ayın 15'si saat 20 UTC'ye kadar
Görüş mesafesi: 4000 m
2000 ft yükseklikte parçalı bulutlu, Kümülonimbus.
sağanak yağmurlar

TAF: NLWW 151700Z 1518/1618 10008KT 9999 SCT025 BKN040 PROB40 TEMPO 1518/1520 4000 SHRA SCT020CB

4.000'den fazla havaalanı için hava durumu gözlemleri ve tahminleri (METAR ve TAF raporları).

Kullanılabilir istasyonlar harita üzerinde sarı ve kırmızı noktalarla gösterilir.

İstasyonun adını görmek için fareyi noktanın üzerinde gezdirin.

Sonrasında hava gözlem ve tahminlerini görmek için tıklayın.

Haritayı değiştirmek için: yaklaştırmak için siyah artı işaretli yeşil düğmeye ve uzaklaştırmak için de eksi işaretli düğmeye hızla tıklayın; bitişik haritalar için yeşil okları kullanın.


METAR-TAF: